Terminal Aerodrome Forecast
Issued by NWS

Home | Current Version | Previous Version | Text Only | Print | Product List | Glossary On
Versions: 1 2 3 4 5 6 7 8 9 10 11 12 13 14
823
FTUS43 KICT 171123
TAFHUT
TAF
KHUT 171123Z 1712/1812 VRB03KT P6SM SKC
     FM172200 24005KT P6SM SKC
     FM180200 17005KT P6SM SCT250=

USA.gov is the U.S. government's official web portal to all federal, state and local government web resources and services.